createdAt,value
2023-01-18T00:00:09.192Z,47.55
2023-01-18T00:03:16.299Z,62.47
2023-01-18T00:09:24.224Z,58.38
2023-01-18T00:12:28.402Z,76.55
2023-01-18T00:15:33.450Z,28.30
2023-01-18T00:18:37.715Z,40.00
2023-01-18T00:21:42.288Z,83.63
2023-01-18T00:24:46.532Z,102.93
2023-01-18T00:27:53.279Z,109.03
2023-01-18T00:30:58.023Z,109.72
2023-01-18T00:34:01.954Z,119.50
2023-01-18T00:37:06.018Z,135.23
2023-01-18T00:40:11.158Z,134.13
2023-01-18T00:43:34.659Z,179.15
2023-01-18T00:46:38.570Z,241.13
2023-01-18T00:49:42.575Z,269.87
2023-01-18T00:52:47.330Z,107.50
2023-01-18T00:58:55.286Z,62.55
2023-01-18T01:01:59.698Z,205.70
2023-01-18T01:05:22.446Z,191.90
2023-01-18T01:08:26.861Z,91.68
2023-01-18T01:11:31.070Z,152.98
2023-01-18T01:14:55.679Z,148.87
2023-01-18T01:18:17.744Z,176.73
2023-01-18T01:21:40.148Z,189.23
2023-01-18T01:25:02.282Z,203.45
2023-01-18T01:28:06.390Z,183.93
2023-01-18T01:31:12.825Z,158.30
2023-01-18T01:34:16.969Z,134.60
2023-01-18T01:37:20.957Z,81.93
2023-01-18T01:40:25.154Z,100.03
2023-01-18T01:43:47.115Z,80.95
2023-01-18T01:46:57.213Z,75.75
2023-01-18T01:50:08.667Z,64.70
2023-01-18T01:53:12.956Z,50.25
2023-01-18T01:56:18.444Z,39.03
2023-01-18T01:59:22.922Z,41.38
2023-01-18T02:02:27.377Z,71.68
2023-01-18T02:05:37.450Z,74.45
2023-01-18T02:08:41.711Z,77.15
2023-01-18T02:11:46.157Z,66.97
2023-01-18T02:14:50.167Z,35.15
2023-01-18T02:18:19.688Z,45.40
2023-01-18T02:21:36.281Z,48.67
2023-01-18T02:25:04.456Z,53.20
2023-01-18T02:28:18.060Z,65.35
2023-01-18T02:31:27.206Z,143.60
2023-01-18T02:34:42.595Z,53.35
2023-01-18T02:37:51.196Z,69.13
2023-01-18T02:41:10.172Z,58.17
2023-01-18T02:44:37.073Z,43.63
2023-01-18T02:47:42.230Z,47.85
2023-01-18T02:53:50.351Z,32.88
2023-01-18T02:56:56.245Z,38.63
2023-01-18T03:00:04.636Z,21.27
2023-01-18T03:03:11.767Z,33.85
2023-01-18T03:06:16.570Z,39.90
2023-01-18T03:09:23.196Z,30.15
2023-01-18T03:12:47.370Z,33.88
2023-01-18T03:16:05.189Z,29.58
2023-01-18T03:19:36.464Z,28.05
2023-01-18T03:23:08.586Z,63.70
2023-01-18T03:26:17.708Z,29.20
2023-01-18T03:29:41.719Z,32.10
2023-01-18T03:33:05.108Z,37.65
2023-01-18T03:36:14.415Z,29.20
2023-01-18T03:39:41.510Z,33.63
2023-01-18T03:43:03.053Z,132.25
2023-01-18T03:46:08.962Z,49.25
2023-01-18T03:49:14.135Z,29.10
2023-01-18T03:52:31.439Z,32.28
2023-01-18T03:55:44.151Z,38.53
2023-01-18T03:58:51.098Z,38.00
2023-01-18T04:01:55.179Z,33.60
2023-01-18T04:05:04.525Z,27.70
2023-01-18T04:08:08.679Z,37.47
2023-01-18T04:11:12.970Z,49.75
2023-01-18T04:14:21.717Z,40.35
2023-01-18T04:17:25.800Z,37.72
2023-01-18T04:20:29.883Z,34.00
2023-01-18T04:23:33.832Z,32.65
2023-01-18T04:26:38.639Z,62.35
2023-01-18T04:29:42.695Z,77.43
2023-01-18T04:32:47.043Z,33.78
2023-01-18T04:35:52.690Z,27.05
2023-01-18T04:38:57.054Z,47.97
2023-01-18T04:42:01.072Z,61.38
2023-01-18T04:45:05.748Z,73.38
2023-01-18T04:48:09.750Z,41.97
2023-01-18T04:51:16.519Z,45.42
2023-01-18T04:54:21.024Z,42.40
2023-01-18T04:57:25.145Z,26.58
2023-01-18T05:00:29.108Z,28.60
2023-01-18T05:03:38.807Z,31.83
2023-01-18T05:06:42.810Z,30.35
2023-01-18T05:09:47.311Z,35.60
2023-01-18T05:12:51.537Z,32.85
2023-01-18T05:15:56.701Z,32.15
2023-01-18T05:19:00.600Z,196.63
2023-01-18T05:22:04.597Z,143.95
2023-01-18T05:25:09.275Z,29.67
2023-01-18T05:28:13.296Z,30.45
2023-01-18T05:31:21.934Z,31.25
2023-01-18T05:34:26.071Z,30.67
2023-01-18T05:37:30.001Z,31.65
2023-01-18T05:40:34.188Z,33.42
2023-01-18T05:43:39.064Z,33.92
2023-01-18T05:49:48.196Z,39.10
2023-01-18T05:52:52.175Z,54.28
2023-01-18T05:56:01.635Z,42.30
2023-01-18T05:59:06.619Z,41.17
2023-01-18T06:02:10.609Z,37.67
2023-01-18T06:05:14.803Z,32.15
2023-01-18T06:08:19.977Z,37.38
2023-01-18T06:11:24.640Z,38.72
2023-01-18T06:14:29.025Z,31.50
2023-01-18T06:17:34.888Z,34.75
2023-01-18T06:23:42.478Z,38.67
2023-01-18T06:26:46.428Z,40.85
2023-01-18T06:29:51.051Z,33.92
2023-01-18T06:32:55.193Z,46.38
2023-01-18T06:35:59.430Z,38.67
2023-01-18T06:39:04.698Z,54.35
2023-01-18T06:42:08.797Z,38.33
2023-01-18T06:45:12.822Z,55.50
2023-01-18T06:48:16.818Z,36.45
2023-01-18T06:51:22.753Z,37.25
2023-01-18T06:54:26.855Z,30.85
2023-01-18T06:57:30.967Z,36.55
2023-01-18T07:00:35.720Z,73.43
2023-01-18T07:03:40.091Z,93.87
2023-01-18T07:06:44.202Z,126.60
2023-01-18T07:09:48.198Z,58.65
2023-01-18T07:12:52.399Z,61.90
2023-01-18T07:16:01.125Z,54.22
2023-01-18T07:19:06.094Z,46.25
2023-01-18T07:22:10.350Z,53.88
2023-01-18T07:25:14.552Z,43.30
2023-01-18T07:28:18.726Z,54.90
2023-01-18T07:31:24.552Z,36.33
2023-01-18T07:34:28.506Z,42.42
2023-01-18T07:37:34.680Z,50.08
2023-01-18T07:40:38.631Z,48.33
2023-01-18T07:43:44.500Z,43.08
2023-01-18T07:46:48.478Z,39.85
2023-01-18T07:49:54.026Z,34.53
2023-01-18T07:52:59.559Z,35.13
2023-01-18T07:56:07.292Z,49.53
2023-01-18T07:59:11.246Z,37.63
2023-01-18T08:02:15.397Z,29.67
2023-01-18T08:05:24.678Z,34.33
2023-01-18T08:08:29.748Z,41.78
2023-01-18T08:11:33.779Z,41.65
2023-01-18T08:14:38.221Z,41.70
2023-01-18T08:17:44.584Z,87.70
2023-01-18T08:20:55.303Z,74.80
2023-01-18T08:23:59.411Z,45.35
2023-01-18T08:27:03.543Z,37.27
2023-01-18T08:30:09.159Z,28.17
2023-01-18T08:33:13.955Z,37.63
2023-01-18T08:36:28.496Z,73.17
2023-01-18T08:39:32.565Z,127.10
2023-01-18T08:42:36.484Z,251.77
2023-01-18T08:45:42.124Z,315.15
2023-01-18T08:51:49.951Z,280.50
2023-01-18T08:54:53.932Z,186.88
2023-01-18T08:57:59.418Z,152.47
2023-01-18T09:01:07.571Z,91.47
2023-01-18T09:04:11.603Z,122.90
2023-01-18T09:07:16.923Z,97.00
2023-01-18T09:10:22.058Z,121.18
2023-01-18T09:13:26.157Z,144.68
2023-01-18T09:16:32.490Z,84.80
2023-01-18T09:19:37.148Z,66.68
2023-01-18T09:25:47.422Z,229.60
2023-01-18T09:28:53.323Z,56.40
2023-01-18T09:31:57.258Z,42.28
2023-01-18T09:35:01.895Z,26.10
2023-01-18T09:38:08.230Z,35.15
2023-01-18T09:41:32.925Z,30.65
2023-01-18T09:44:41.951Z,41.30
2023-01-18T09:47:48.497Z,77.68
2023-01-18T09:50:54.428Z,105.30
2023-01-18T09:54:20.169Z,124.95
2023-01-18T09:57:58.211Z,121.10
2023-01-18T10:01:19.052Z,70.80
2023-01-18T10:04:37.376Z,44.03
2023-01-18T10:08:02.968Z,38.92
2023-01-18T10:11:11.642Z,41.65
2023-01-18T10:14:34.096Z,195.77
2023-01-18T10:17:41.469Z,151.93
2023-01-18T10:21:04.569Z,81.88
2023-01-18T10:24:38.814Z,62.15
2023-01-18T10:28:09.785Z,67.80
2023-01-18T10:31:31.669Z,52.20
2023-01-18T10:34:43.429Z,56.63
2023-01-18T10:37:49.981Z,43.63
2023-01-18T10:41:02.430Z,54.78
2023-01-18T10:44:10.870Z,99.80
2023-01-18T10:47:19.269Z,62.58
2023-01-18T10:50:25.932Z,39.28
2023-01-18T10:53:38.429Z,36.70
2023-01-18T10:56:43.148Z,66.10
2023-01-18T10:59:47.465Z,222.90
2023-01-18T11:02:57.430Z,118.95
2023-01-18T11:06:07.908Z,157.88
2023-01-18T11:09:41.577Z,175.13
2023-01-18T11:12:49.288Z,50.83
2023-01-18T11:16:15.129Z,107.93
2023-01-18T11:19:20.575Z,63.95
2023-01-18T11:22:25.744Z,84.75
2023-01-18T11:25:43.319Z,68.53
2023-01-18T11:29:11.534Z,57.70
2023-01-18T11:32:26.537Z,31.50
2023-01-18T11:35:37.677Z,37.60
2023-01-18T11:38:43.369Z,43.38
2023-01-18T11:45:05.396Z,31.40
2023-01-18T11:48:37.843Z,35.08
2023-01-18T11:52:49.700Z,26.25
2023-01-18T12:02:04.962Z,39.33
2023-01-18T12:09:59.220Z,39.72
2023-01-18T12:14:44.202Z,32.78
2023-01-18T12:18:44.010Z,39.10
2023-01-18T12:23:26.647Z,27.45
2023-01-18T12:26:39.508Z,39.10
2023-01-18T12:29:59.793Z,31.00
2023-01-18T12:36:43.150Z,27.42
2023-01-18T12:40:28.875Z,15.35
2023-01-18T12:43:39.162Z,23.67
2023-01-18T12:47:03.767Z,33.60
2023-01-18T12:50:31.541Z,29.42
2023-01-18T12:53:47.276Z,35.13
2023-01-18T12:56:55.614Z,19.92
2023-01-18T13:00:16.281Z,32.33
2023-01-18T13:03:25.469Z,24.92
2023-01-18T13:06:31.372Z,17.23
2023-01-18T13:09:41.281Z,22.17
2023-01-18T13:12:46.243Z,21.83
2023-01-18T13:16:10.433Z,35.45
2023-01-18T13:19:25.016Z,19.70
2023-01-18T13:22:53.438Z,27.50
2023-01-18T13:26:15.101Z,31.95
2023-01-18T13:29:31.998Z,34.63
2023-01-18T13:32:39.068Z,32.20
2023-01-18T13:35:54.251Z,17.02
2023-01-18T13:39:05.084Z,26.30
2023-01-18T13:42:13.897Z,27.98
2023-01-18T13:45:30.250Z,28.48
2023-01-18T13:48:57.170Z,32.85
2023-01-18T13:52:01.528Z,25.35
2023-01-18T13:55:25.912Z,35.15
2023-01-18T13:58:31.621Z,33.10
2023-01-18T14:01:37.964Z,27.55
2023-01-18T14:04:42.418Z,32.95
2023-01-18T14:07:50.161Z,28.88
2023-01-18T14:11:08.657Z,23.63
2023-01-18T14:14:16.790Z,22.20
2023-01-18T14:17:22.698Z,23.05
2023-01-18T14:21:00.392Z,22.00
2023-01-18T14:24:07.770Z,33.60
2023-01-18T14:27:25.119Z,34.53
2023-01-18T14:30:34.220Z,29.80
2023-01-18T14:33:43.142Z,16.02
2023-01-18T14:36:47.576Z,23.90
2023-01-18T14:40:04.559Z,26.33
2023-01-18T14:43:35.805Z,30.45
2023-01-18T14:46:39.952Z,30.90
2023-01-18T14:49:45.518Z,15.70
2023-01-18T14:52:51.494Z,21.00
2023-01-18T14:56:11.506Z,19.85
2023-01-18T14:59:31.780Z,23.55
2023-01-18T15:02:39.741Z,26.00
2023-01-18T15:05:43.941Z,30.38
2023-01-18T15:08:52.082Z,37.03
2023-01-18T15:11:58.925Z,33.33
2023-01-18T15:15:10.820Z,31.52
2023-01-18T15:18:22.372Z,29.73
2023-01-18T15:21:31.034Z,22.70
2023-01-18T15:24:41.935Z,27.13
2023-01-18T15:27:52.765Z,25.73
2023-01-18T15:30:58.542Z,31.55
2023-01-18T15:34:03.544Z,28.70
2023-01-18T15:37:11.332Z,26.60
2023-01-18T15:40:15.630Z,30.02
2023-01-18T15:43:28.663Z,26.42
2023-01-18T15:46:40.092Z,23.33
2023-01-18T15:49:50.327Z,17.27
2023-01-18T15:53:07.061Z,24.23
2023-01-18T15:56:18.841Z,25.35
2023-01-18T15:59:26.046Z,19.67
2023-01-18T16:02:32.006Z,19.00
2023-01-18T16:05:36.613Z,27.00
2023-01-18T16:08:58.782Z,20.38
2023-01-18T16:12:05.410Z,25.02
2023-01-18T16:15:26.104Z,21.83
2023-01-18T16:18:30.487Z,22.60
2023-01-18T16:21:49.381Z,26.63
2023-01-18T16:24:58.580Z,19.65
2023-01-18T16:28:03.883Z,20.55
2023-01-18T16:31:08.280Z,21.60
2023-01-18T16:34:19.680Z,19.38
2023-01-18T16:37:24.191Z,25.38
2023-01-18T16:40:29.660Z,21.67
2023-01-18T16:43:36.678Z,17.65
2023-01-18T16:46:40.456Z,20.35
2023-01-18T16:49:45.798Z,30.95
2023-01-18T16:52:49.662Z,22.38
2023-01-18T16:55:54.331Z,29.33
2023-01-18T16:58:58.560Z,24.90
2023-01-18T17:02:02.689Z,29.30
2023-01-18T17:05:07.431Z,27.08
2023-01-18T17:08:15.848Z,21.95
2023-01-18T17:11:19.943Z,21.17
2023-01-18T17:14:23.898Z,25.67
2023-01-18T17:17:27.938Z,31.67
2023-01-18T17:20:32.669Z,22.67
2023-01-18T17:26:41.895Z,18.15
2023-01-18T17:29:46.093Z,17.65
2023-01-18T17:32:51.052Z,21.73
2023-01-18T17:35:56.295Z,23.17
2023-01-18T17:39:00.280Z,15.23
2023-01-18T17:42:04.539Z,19.27
2023-01-18T17:45:10.867Z,27.60
2023-01-18T17:48:15.254Z,27.63
2023-01-18T17:51:19.652Z,26.42
2023-01-18T17:54:23.762Z,23.42
2023-01-18T17:57:29.911Z,17.02
2023-01-18T18:00:33.984Z,25.50
2023-01-18T18:03:44.018Z,20.83
2023-01-18T18:06:54.465Z,15.68
2023-01-18T18:10:01.858Z,16.33
2023-01-18T18:13:07.000Z,26.73
2023-01-18T18:16:18.254Z,29.48
2023-01-18T18:19:22.652Z,22.92
2023-01-18T18:22:27.088Z,22.42
2023-01-18T18:25:31.125Z,19.67
2023-01-18T18:28:38.270Z,14.52
2023-01-18T18:31:42.978Z,15.90
2023-01-18T18:34:47.594Z,16.08
2023-01-18T18:37:52.726Z,15.57
2023-01-18T18:41:03.210Z,21.70
2023-01-18T18:44:07.538Z,22.90
2023-01-18T18:47:14.271Z,21.52
2023-01-18T18:50:18.657Z,17.20
2023-01-18T18:53:29.664Z,12.13
2023-01-18T18:56:42.235Z,7.57
2023-01-18T18:59:46.197Z,16.17
2023-01-18T19:02:50.271Z,14.43
2023-01-18T19:05:54.347Z,10.80
2023-01-18T19:08:59.312Z,21.27
2023-01-18T19:12:03.302Z,19.50
2023-01-18T19:15:08.016Z,17.35
2023-01-18T19:18:12.557Z,21.27
2023-01-18T19:21:16.841Z,14.57
2023-01-18T19:24:20.843Z,20.13
2023-01-18T19:27:25.447Z,17.48
2023-01-18T19:30:31.410Z,5.90
2023-01-18T19:33:39.212Z,17.42
2023-01-18T19:36:43.384Z,27.65
2023-01-18T19:39:47.934Z,17.98
2023-01-18T19:43:01.537Z,18.08
2023-01-18T19:46:08.190Z,24.70
2023-01-18T19:49:12.577Z,34.72
2023-01-18T19:52:16.679Z,21.90
2023-01-18T19:55:22.782Z,21.92
2023-01-18T19:58:27.947Z,22.35
2023-01-18T20:04:43.909Z,23.17
2023-01-18T20:07:48.804Z,20.50
2023-01-18T20:10:55.166Z,24.10
2023-01-18T20:13:59.436Z,16.77
2023-01-18T20:17:03.266Z,22.80
2023-01-18T20:20:08.379Z,20.92
2023-01-18T20:23:12.211Z,18.60
2023-01-18T20:26:27.728Z,19.00
2023-01-18T20:29:39.063Z,17.80
2023-01-18T20:32:43.545Z,26.02
2023-01-18T20:35:47.600Z,16.20
2023-01-18T20:38:52.709Z,14.70
2023-01-18T20:41:56.811Z,17.48
2023-01-18T20:45:01.591Z,12.68
2023-01-18T20:48:07.885Z,15.95
2023-01-18T20:51:12.408Z,19.13
2023-01-18T20:54:16.490Z,19.23
2023-01-18T20:57:21.499Z,16.42
2023-01-18T21:00:25.403Z,27.65
2023-01-18T21:03:29.928Z,24.10
2023-01-18T21:06:33.921Z,17.50
2023-01-18T21:09:38.384Z,19.10
2023-01-18T21:12:42.129Z,23.43
2023-01-18T21:15:47.476Z,23.83
2023-01-18T21:18:53.473Z,22.05
2023-01-18T21:21:57.999Z,17.35
2023-01-18T21:25:01.855Z,24.75
2023-01-18T21:28:06.887Z,42.25
2023-01-18T21:31:10.830Z,58.33
2023-01-18T21:34:15.477Z,24.90
2023-01-18T21:37:19.319Z,20.88
2023-01-18T21:40:24.262Z,17.47
2023-01-18T21:43:46.499Z,19.55
2023-01-18T21:46:52.699Z,19.80
2023-01-18T21:50:17.895Z,18.65
2023-01-18T21:53:41.134Z,18.70
2023-01-18T21:56:46.159Z,13.63
2023-01-18T21:59:51.247Z,19.67
2023-01-18T22:02:55.043Z,25.98
2023-01-18T22:06:02.137Z,19.60
2023-01-18T22:09:07.479Z,18.20
2023-01-18T22:12:11.841Z,26.52
2023-01-18T22:15:20.074Z,16.35
2023-01-18T22:18:24.850Z,18.00
2023-01-18T22:21:29.438Z,18.08
2023-01-18T22:24:34.032Z,19.33
2023-01-18T22:27:38.116Z,20.40
2023-01-18T22:30:42.716Z,17.75
2023-01-18T22:33:46.490Z,39.57
2023-01-18T22:36:51.621Z,24.85
2023-01-18T22:39:55.773Z,43.60
2023-01-18T22:43:00.054Z,18.48
2023-01-18T22:46:05.247Z,17.83
2023-01-18T22:49:09.589Z,24.45
2023-01-18T22:52:13.380Z,19.02
2023-01-18T22:55:17.756Z,16.37
2023-01-18T22:58:24.902Z,13.52
2023-01-18T23:01:32.266Z,18.92
2023-01-18T23:04:36.461Z,16.55
2023-01-18T23:07:41.019Z,19.87
2023-01-18T23:10:44.764Z,18.47
2023-01-18T23:14:10.103Z,18.67
2023-01-18T23:17:32.895Z,21.83
2023-01-18T23:20:37.894Z,16.80
2023-01-18T23:23:41.683Z,16.25
2023-01-18T23:26:46.361Z,16.13
2023-01-18T23:29:57.183Z,18.23
2023-01-18T23:33:01.598Z,20.88
2023-01-18T23:36:06.314Z,21.38
2023-01-18T23:42:50.656Z,16.33
2023-01-18T23:46:13.197Z,14.75
2023-01-18T23:49:35.436Z,11.02
2023-01-18T23:52:58.068Z,18.45
2023-01-18T23:56:01.948Z,25.08
2023-01-18T23:59:06.201Z,15.90
